May, Idaho
Current Conditions -  °F | °C
As of 3:55 AM on Saturday 25 Oct 2014 (Local Time) from KLLJ Reporting Station
Clear Clear  
Wind Chill: 33°   Ceiling: Unl
Heat Index: 33°   Visibility: 10mi
Dew Point: 31°   Wind: 3mph
Humidity: 92%   Direction: 360°N
Pressure: 30.06"   Gusts: NA
Location:  44.6°N, 113.91°W
Report Text: KLLJ 250955Z AUTO 36003KT 10SM CLR 01/M01 A3006 RMK AO2 SLP169 T00061006
Loading
Personal Weather Stations






























Interactive Weather Map
Tropical Storm Tracking
New forecast layout! Learn more

10-Day Weather Forecast

Advertisements
Track Severe Weather on mobile